Terminal Aerodrome Forecast
Issued by NWS Jackson, MS

Home | Current Version | Previous Version | Text Only | Print | Product List | Glossary On
Versions: 1 2 3 4 5 6 7 8 9 10 11 12
000
FTUS44 KJAN 191100
TAFJAN
TAF
KJAN 191120Z 1912/2012 05004KT P6SM OVC025
     FM191300 05006KT P6SM -RA OVC015
     FM191700 05005KT 4SM RA BKN008 OVC015
     FM200000 05005KT P6SM -RA BKN025
     FM200600 04005KT 4SM BR OVC005=

USA.gov is the U.S. government's official web portal to all federal, state and local government web resources and services.